Time;durP1;ratioP1;P1;durP2;ratioP2;P2;SDS_P1;SDS_P2;PMS_P1;PMS_P2;Temp;Humidity;BMP_temperature;BMP_pressure;BME280_temperature;BME280_humidity;BME280_pressure;Samples;Min_cycle;Max_cycle;Signal;HPM_P1;HPM_P2
2021/01/21 00:02:23;;;;;;;3.40;1.10;;;8.10;99.90;;;;;;5020645;28;20263;-90
2021/01/21 00:04:48;;;;;;;2.90;1.23;;;8.10;99.90;;;;;;5019739;28;20175;-89
2021/01/21 00:07:14;;;;;;;2.33;1.30;;;8.10;99.90;;;;;;5038296;28;20234;-90
2021/01/21 00:09:40;;;;;;;6.57;1.87;;;8.10;99.90;;;;;;5022308;28;20671;-89
2021/01/21 00:12:08;;;;;;;2.70;1.20;;;8.10;99.90;;;;;;5022214;28;20186;-89
2021/01/21 00:14:34;;;;;;;5.30;1.60;;;8.00;99.90;;;;;;5017627;28;20209;-90
2021/01/21 00:17:00;;;;;;;2.60;1.17;;;8.10;99.90;;;;;;5017830;28;20269;-91
2021/01/21 00:19:25;;;;;;;3.67;1.37;;;8.10;99.90;;;;;;5037061;28;20190;-89
2021/01/21 00:21:51;;;;;;;3.83;1.37;;;8.20;99.90;;;;;;5036035;28;20179;-90
2021/01/21 00:24:19;;;;;;;5.80;1.40;;;8.20;99.90;;;;;;5023714;28;20273;-90
2021/01/21 00:26:45;;;;;;;4.07;1.43;;;8.10;99.90;;;;;;5022922;28;20187;-89
2021/01/21 00:29:11;;;;;;;3.67;1.27;;;8.20;99.90;;;;;;5023159;28;20273;-89
2021/01/21 00:31:37;;;;;;;2.37;1.20;;;8.20;99.90;;;;;;5023715;28;20178;-90
2021/01/21 00:34:03;;;;;;;3.30;1.23;;;8.10;99.90;;;;;;5020614;28;20205;-90
2021/01/21 00:36:29;;;;;;;4.27;1.10;;;8.10;99.90;;;;;;5017620;28;20501;-90
2021/01/21 00:38:54;;;;;;;5.27;1.43;;;8.10;99.90;;;;;;5017289;28;20174;-90
2021/01/21 00:41:20;;;;;;;4.90;1.30;;;8.10;99.90;;;;;;5017395;28;20621;-91
2021/01/21 00:43:46;;;;;;;4.07;1.37;;;8.10;99.90;;;;;;5017535;28;20181;-90
2021/01/21 00:46:11;;;;;;;4.77;1.33;;;8.10;99.90;;;;;;5017065;28;20189;-91
2021/01/21 00:48:41;;;;;;;4.10;1.50;;;8.10;99.90;;;;;;5017022;28;20253;-90
2021/01/21 00:51:07;;;;;;;3.77;1.50;;;8.10;99.90;;;;;;5017256;28;20183;-91
2021/01/21 00:53:33;;;;;;;4.60;1.20;;;8.20;99.90;;;;;;5017312;28;20170;-90
2021/01/21 00:55:58;;;;;;;2.50;1.10;;;8.10;99.90;;;;;;5017294;28;20214;-91
2021/01/21 00:58:24;;;;;;;4.63;1.43;;;8.00;99.90;;;;;;5017323;28;20633;-90
2021/01/21 01:00:50;;;;;;;3.97;1.40;;;8.00;99.90;;;;;;5017347;28;20189;-90
2021/01/21 01:03:15;;;;;;;3.33;1.43;;;8.10;99.90;;;;;;5017152;28;20232;-90
2021/01/21 01:05:41;;;;;;;2.27;1.13;;;8.10;99.90;;;;;;5034448;28;20177;-90
2021/01/21 01:08:07;;;;;;;6.33;1.60;;;8.10;99.90;;;;;;5017167;28;20190;-90
2021/01/21 01:10:33;;;;;;;2.53;1.13;;;8.20;99.90;;;;;;5017268;28;20186;-90
2021/01/21 01:12:58;;;;;;;4.77;1.70;;;8.20;99.90;;;;;;5016597;28;20179;-89
2021/01/21 01:15:33;;;;;;;4.33;1.50;;;8.30;99.90;;;;;;5016742;28;20710;-89
2021/01/21 01:17:59;;;;;;;3.63;1.20;;;8.30;99.90;;;;;;5017168;28;20169;-90
2021/01/21 01:20:25;;;;;;;1.43;1.10;;;8.30;99.90;;;;;;5016781;28;20621;-90
2021/01/21 01:22:52;;;;;;;5.10;1.10;;;8.30;99.90;;;;;;5017832;28;20212;-90
2021/01/21 01:25:22;;;;;;;7.60;1.27;;;8.40;99.90;;;;;;5019169;28;20278;-90
2021/01/21 01:27:48;;;;;;;4.13;1.30;;;8.50;99.90;;;;;;5035894;28;20174;-89
2021/01/21 01:30:15;;;;;;;3.87;1.37;;;8.60;99.90;;;;;;5017319;28;20389;-90
2021/01/21 01:32:44;;;;;;;2.77;1.20;;;8.60;99.90;;;;;;5017103;28;20240;-90
2021/01/21 01:35:10;;;;;;;4.80;1.37;;;8.60;99.90;;;;;;5017603;28;20305;-91
2021/01/21 01:37:39;;;;;;;4.67;1.20;;;8.60;99.90;;;;;;5020960;28;20202;-90
2021/01/21 01:40:09;;;;;;;3.23;1.43;;;8.70;99.90;;;;;;5021040;28;20622;-90
2021/01/21 01:42:35;;;;;;;5.90;1.40;;;8.80;99.90;;;;;;5020467;28;20223;-90
2021/01/21 01:45:01;;;;;;;4.30;1.40;;;8.80;99.90;;;;;;5020819;28;20221;-91
2021/01/21 01:47:33;;;;;;;3.60;1.33;;;8.80;99.90;;;;;;5020536;28;20596;-90
2021/01/21 01:49:59;;;;;;;5.27;1.77;;;8.80;99.90;;;;;;5020141;28;20234;-89
2021/01/21 01:52:29;;;;;;;2.73;1.13;;;8.70;99.90;;;;;;5020384;28;20182;-91
2021/01/21 01:54:54;;;;;;;4.30;1.20;;;8.70;99.90;;;;;;5037658;28;20209;-90
2021/01/21 01:57:22;;;;;;;4.27;1.00;;;8.70;99.90;;;;;;5020225;28;20524;-90
2021/01/21 01:59:53;;;;;;;3.17;1.20;;;8.80;99.90;;;;;;5020259;28;20317;-90
2021/01/21 02:02:19;;;;;;;4.03;1.50;;;8.90;99.90;;;;;;5020650;28;20606;-91
2021/01/21 02:04:46;;;;;;;3.00;1.17;;;8.80;99.90;;;;;;5019815;28;20178;-90
2021/01/21 02:07:12;;;;;;;2.67;0.97;;;8.90;99.90;;;;;;5020009;28;20182;-90
2021/01/21 02:09:38;;;;;;;2.30;1.20;;;8.80;99.90;;;;;;5019864;28;20213;-89
2021/01/21 02:12:15;;;;;;;2.10;1.20;;;8.90;99.90;;;;;;5020048;28;20194;-90
2021/01/21 02:14:57;;;;;;;3.57;1.60;;;8.80;99.90;;;;;;5037681;28;20213;-90
2021/01/21 02:17:35;;;;;;;3.53;1.27;;;8.90;99.90;;;;;;5020060;28;20174;-89
2021/01/21 02:20:54;;;;;;;3.23;1.60;;;8.90;99.90;;;;;;5019629;28;20196;-89
2021/01/21 02:23:58;;;;;;;3.20;1.40;;;8.90;99.90;;;;;;5019842;28;20218;-90
2021/01/21 02:26:43;;;;;;;4.67;1.30;;;9.00;99.90;;;;;;5020056;28;20210;-92
2021/01/21 02:29:18;;;;;;;4.40;1.20;;;9.10;99.90;;;;;;5019739;28;20640;-90
2021/01/21 02:31:47;;;;;;;1.97;1.10;;;9.10;99.90;;;;;;5019652;28;20488;-90
2021/01/21 02:34:39;;;;;;;3.10;1.37;;;9.10;99.90;;;;;;5019423;28;20210;-89
2021/01/21 02:37:11;;;;;;;2.90;1.43;;;9.00;99.90;;;;;;4993275;28;20187;-89
2021/01/21 02:39:38;;;;;;;2.60;1.30;;;9.00;99.90;;;;;;5019551;28;20170;-90
2021/01/21 02:42:04;;;;;;;3.43;1.00;;;8.90;99.90;;;;;;5019383;28;20293;-91
2021/01/21 02:44:30;;;;;;;2.20;1.10;;;8.90;99.90;;;;;;5019497;28;20257;-89
2021/01/21 02:46:57;;;;;;;2.83;1.30;;;8.90;99.90;;;;;;5035554;28;20254;-90
2021/01/21 02:49:23;;;;;;;4.07;1.13;;;9.00;99.90;;;;;;5019000;28;20237;-89
2021/01/21 02:52:05;;;;;;;2.77;1.30;;;9.00;99.90;;;;;;5019242;28;20653;-90
2021/01/21 02:54:47;;;;;;;3.00;1.00;;;9.00;99.90;;;;;;5019342;28;20203;-91
2021/01/21 02:57:21;;;;;;;2.93;1.33;;;9.00;99.90;;;;;;5018946;28;20568;-90
2021/01/21 02:59:48;;;;;;;3.03;1.33;;;9.00;99.90;;;;;;5019031;28;20313;-91
2021/01/21 03:02:17;;;;;;;4.00;1.13;;;9.00;99.90;;;;;;5019181;28;20240;-90
2021/01/21 03:04:44;;;;;;;2.90;1.30;;;9.00;99.90;;;;;;5018897;28;20559;-90
2021/01/21 03:07:11;;;;;;;3.43;1.33;;;9.00;99.90;;;;;;5019031;28;20190;-90
2021/01/21 03:09:44;;;;;;;1.70;1.10;;;9.00;99.90;;;;;;5422213;23;20322;-96
2021/01/21 03:12:26;;;;;;;3.07;1.23;;;8.90;99.90;;;;;;4999295;28;20291;-95
2021/01/21 03:14:55;;;;;;;4.67;1.20;;;9.00;99.90;;;;;;4998953;28;20238;-95
2021/01/21 03:17:27;;;;;;;3.50;1.07;;;8.90;99.90;;;;;;4998824;28;20199;-93
2021/01/21 03:19:53;;;;;;;3.87;1.30;;;8.90;99.90;;;;;;4998755;28;20172;-93
2021/01/21 03:22:20;;;;;;;2.27;1.03;;;8.80;99.90;;;;;;4998175;28;20206;-93
2021/01/21 03:24:46;;;;;;;2.13;1.00;;;8.80;99.90;;;;;;4998160;28;20557;-94
2021/01/21 03:27:12;;;;;;;2.53;1.10;;;8.80;99.90;;;;;;4998130;28;20180;-94
2021/01/21 03:29:38;;;;;;;4.13;1.23;;;8.90;99.90;;;;;;4998915;28;20176;-94
2021/01/21 03:32:05;;;;;;;2.23;1.10;;;8.80;99.90;;;;;;4999095;28;20176;-95
2021/01/21 03:34:32;;;;;;;1.80;1.23;;;8.90;99.90;;;;;;4998719;28;20206;-92
2021/01/21 03:36:57;;;;;;;1.83;1.27;;;8.90;99.90;;;;;;4998086;28;20697;-93
2021/01/21 03:39:24;;;;;;;3.23;1.27;;;9.00;99.90;;;;;;4997668;28;20183;-95
2021/01/21 03:41:52;;;;;;;5.60;1.43;;;9.00;99.90;;;;;;4998244;28;20212;-94
2021/01/21 03:44:18;;;;;;;1.77;1.10;;;9.00;99.90;;;;;;4998639;28;20184;-95
2021/01/21 03:46:44;;;;;;;2.60;1.10;;;9.00;99.90;;;;;;4998578;28;20192;-94
2021/01/21 03:49:11;;;;;;;2.13;1.07;;;9.00;99.90;;;;;;4997605;28;20610;-92
2021/01/21 03:51:40;;;;;;;3.43;1.13;;;9.00;99.90;;;;;;4998987;28;20179;-94
2021/01/21 03:54:06;;;;;;;3.20;1.10;;;9.10;99.90;;;;;;4997801;28;20219;-93
2021/01/21 03:56:32;;;;;;;3.03;1.10;;;9.10;99.90;;;;;;4999170;28;20621;-93
2021/01/21 03:59:03;;;;;;;3.87;1.10;;;9.00;99.90;;;;;;4997778;28;20191;-93
2021/01/21 04:01:28;;;;;;;2.00;1.00;;;9.00;99.90;;;;;;4998550;28;20262;-93
2021/01/21 04:03:54;;;;;;;2.73;1.30;;;9.00;99.90;;;;;;4998112;28;20210;-93
2021/01/21 04:06:20;;;;;;;2.67;1.10;;;8.90;99.90;;;;;;4998206;28;20214;-93
2021/01/21 04:08:46;;;;;;;3.57;1.30;;;9.00;99.90;;;;;;4997456;28;20192;-93
2021/01/21 04:11:13;;;;;;;3.43;1.33;;;9.00;99.90;;;;;;5016861;28;20194;-92
2021/01/21 04:13:41;;;;;;;5.30;1.50;;;9.00;99.90;;;;;;5017199;28;20182;-92
2021/01/21 04:16:07;;;;;;;1.30;1.00;;;9.00;99.90;;;;;;5017600;28;20297;-93
2021/01/21 04:18:33;;;;;;;2.83;1.20;;;8.90;99.90;;;;;;5017102;28;20194;-96
2021/01/21 04:20:58;;;;;;;3.30;1.20;;;8.90;99.90;;;;;;5016898;28;20195;-93
2021/01/21 04:23:24;;;;;;;2.93;1.27;;;8.80;99.90;;;;;;5016779;28;20653;-93
2021/01/21 04:25:51;;;;;;;3.63;1.10;;;8.90;99.90;;;;;;5016377;28;20186;-95
2021/01/21 04:28:16;;;;;;;2.17;1.13;;;8.90;99.90;;;;;;5016700;28;20191;-94
2021/01/21 04:30:42;;;;;;;4.20;1.00;;;8.80;99.90;;;;;;5016345;28;20183;-94
2021/01/21 04:33:08;;;;;;;4.37;1.20;;;8.80;99.90;;;;;;5015623;28;20245;-93
2021/01/21 04:35:34;;;;;;;2.13;1.00;;;8.80;99.90;;;;;;5014792;28;20556;-92
2021/01/21 04:38:03;;;;;;;2.20;1.00;;;8.70;99.90;;;;;;5014823;28;20175;-95
2021/01/21 04:40:28;;;;;;;2.03;0.90;;;8.70;99.90;;;;;;5015000;28;20187;-94
2021/01/21 04:42:54;;;;;;;2.23;1.17;;;8.70;99.90;;;;;;5015381;28;20221;-94
2021/01/21 04:45:20;;;;;;;2.97;1.00;;;8.80;99.90;;;;;;5014880;28;20192;-95
2021/01/21 04:47:47;;;;;;;3.23;0.90;;;8.80;99.90;;;;;;5014798;28;20675;-95
2021/01/21 04:50:13;;;;;;;2.47;1.00;;;8.80;99.90;;;;;;5014665;28;20228;-94
2021/01/21 04:52:45;;;;;;;3.00;1.17;;;8.80;99.90;;;;;;5014648;28;20182;-94
2021/01/21 04:55:16;;;;;;;1.93;0.93;;;8.80;99.90;;;;;;5014541;28;20222;-93
2021/01/21 04:57:51;;;;;;;2.53;1.30;;;8.80;99.90;;;;;;5016101;28;20175;-95
2021/01/21 05:00:18;;;;;;;1.97;1.00;;;8.80;99.90;;;;;;5015646;28;20179;-95
2021/01/21 05:02:45;;;;;;;6.13;1.00;;;8.70;99.90;;;;;;5016233;28;20517;-93
2021/01/21 05:05:12;;;;;;;4.03;1.27;;;8.60;99.90;;;;;;5016688;28;20206;-94
2021/01/21 05:07:41;;;;;;;2.90;1.10;;;8.70;99.90;;;;;;5015961;28;20214;-94
2021/01/21 05:10:08;;;;;;;1.50;0.90;;;8.70;99.90;;;;;;5004365;28;20227;-93
2021/01/21 05:12:37;;;;;;;1.40;0.80;;;8.60;99.90;;;;;;4999070;28;20211;-93
2021/01/21 05:15:04;;;;;;;1.93;0.90;;;8.60;99.90;;;;;;4998751;28;20211;-94
2021/01/21 05:17:29;;;;;;;2.57;1.10;;;8.60;99.90;;;;;;4998846;28;20283;-94
2021/01/21 05:19:59;;;;;;;4.33;1.20;;;8.60;99.90;;;;;;4999452;28;20219;-93
2021/01/21 05:22:25;;;;;;;4.67;1.20;;;8.70;99.90;;;;;;4999526;28;20188;-92
2021/01/21 05:24:51;;;;;;;2.93;1.27;;;8.70;99.90;;;;;;4998704;28;20180;-93
2021/01/21 05:27:20;;;;;;;2.07;1.00;;;8.80;99.90;;;;;;5000353;28;20701;-93
2021/01/21 05:29:46;;;;;;;3.77;0.93;;;8.80;99.90;;;;;;4999126;28;20229;-92
2021/01/21 05:32:17;;;;;;;3.10;1.20;;;8.90;99.90;;;;;;4999126;28;20191;-94
2021/01/21 05:34:44;;;;;;;2.37;0.80;;;8.90;99.90;;;;;;4999311;28;20766;-93
2021/01/21 05:37:12;;;;;;;2.73;0.83;;;9.10;99.90;;;;;;4999017;28;20176;-91
2021/01/21 05:39:39;;;;;;;5.00;1.03;;;9.30;99.90;;;;;;5005143;28;20187;-94
2021/01/21 05:42:06;;;;;;;2.47;1.10;;;9.40;99.90;;;;;;5018590;28;20190;-91
2021/01/21 05:44:32;;;;;;;2.73;1.33;;;9.40;99.90;;;;;;5018385;28;20191;-92
2021/01/21 05:47:06;;;;;;;2.07;1.00;;;9.50;99.60;;;;;;5018555;28;20191;-94
2021/01/21 05:49:34;;;;;;;3.10;1.07;;;9.60;99.90;;;;;;5018034;28;20225;-96
2021/01/21 05:52:00;;;;;;;3.20;1.00;;;9.60;99.80;;;;;;5018276;28;20179;-92
2021/01/21 05:54:28;;;;;;;2.07;0.83;;;9.60;99.50;;;;;;5018606;28;20541;-93
2021/01/21 05:56:59;;;;;;;4.77;1.30;;;9.50;99.90;;;;;;5018262;28;20179;-92
2021/01/21 05:59:26;;;;;;;4.50;0.90;;;9.70;99.60;;;;;;5019019;28;20174;-93
2021/01/21 06:01:53;;;;;;;3.40;1.00;;;9.70;99.30;;;;;;5017884;28;20248;-96
2021/01/21 06:04:24;;;;;;;2.10;1.00;;;9.70;99.30;;;;;;5018113;28;20175;-94
2021/01/21 06:06:55;;;;;;;5.53;1.10;;;9.80;98.90;;;;;;5018520;28;20175;-93
2021/01/21 06:09:28;;;;;;;2.60;0.90;;;9.90;98.90;;;;;;5018340;28;20254;-92
2021/01/21 06:12:02;;;;;;;0.97;0.70;;;9.80;99.40;;;;;;5017960;28;20182;-92
2021/01/21 06:14:28;;;;;;;1.87;1.00;;;9.60;99.50;;;;;;5016977;28;20213;-94
2021/01/21 06:16:55;;;;;;;1.60;0.90;;;9.50;99.90;;;;;;5018425;28;20183;-92
2021/01/21 06:19:21;;;;;;;2.73;0.90;;;9.60;99.90;;;;;;5017369;28;20179;-93
2021/01/21 06:21:54;;;;;;;1.50;0.90;;;9.50;99.90;;;;;;5017691;28;20182;-91
2021/01/21 06:24:30;;;;;;;2.07;1.17;;;9.50;99.80;;;;;;5019407;28;20614;-93
2021/01/21 06:27:02;;;;;;;2.20;1.20;;;9.60;99.70;;;;;;5019105;28;20266;-93
2021/01/21 06:29:30;;;;;;;2.47;1.07;;;9.50;99.90;;;;;;5020156;28;20544;-93
2021/01/21 06:32:02;;;;;;;3.83;1.00;;;9.60;99.40;;;;;;5019188;28;20190;-92
2021/01/21 06:34:33;;;;;;;2.50;1.00;;;9.60;99.80;;;;;;5017284;28;20203;-94
2021/01/21 06:37:21;;;;;;;2.53;0.77;;;9.50;99.90;;;;;;5018353;28;20179;-94
2021/01/21 06:40:04;;;;;;;1.87;0.90;;;9.50;99.90;;;;;;5010971;28;20650;-90
2021/01/21 06:42:32;;;;;;;3.17;0.90;;;9.40;99.90;;;;;;4999159;28;20172;-92
2021/01/21 06:44:59;;;;;;;1.50;0.80;;;9.40;99.90;;;;;;5014441;28;20206;-92
2021/01/21 06:47:25;;;;;;;2.67;0.90;;;9.30;99.90;;;;;;5015435;28;20234;-91
2021/01/21 06:50:00;;;;;;;3.63;1.00;;;9.30;99.90;;;;;;5015434;28;20188;-93
2021/01/21 06:52:29;;;;;;;4.80;1.43;;;9.40;99.90;;;;;;4998259;28;20242;-90
2021/01/21 06:54:56;;;;;;;1.53;0.83;;;9.40;99.80;;;;;;5014215;28;20607;-91
2021/01/21 06:57:34;;;;;;;1.47;1.00;;;9.40;99.90;;;;;;5013944;28;20618;-94
2021/01/21 07:00:14;;;;;;;1.50;0.90;;;9.40;99.90;;;;;;4999185;28;20182;-92
2021/01/21 07:02:48;;;;;;;1.50;0.90;;;9.40;99.90;;;;;;5013699;28;20591;-92
2021/01/21 07:05:23;;;;;;;1.80;0.90;;;9.30;99.90;;;;;;5014346;28;20172;-92
2021/01/21 07:07:56;;;;;;;1.43;0.97;;;9.30;99.90;;;;;;5015775;28;20164;-94
2021/01/21 07:10:37;;;;;;;2.27;0.93;;;9.40;99.90;;;;;;5011085;28;20242;-92
2021/01/21 07:13:09;;;;;;;0.90;0.80;;;9.40;99.90;;;;;;5021827;28;20179;-91
2021/01/21 07:15:43;;;;;;;1.30;0.77;;;9.30;99.90;;;;;;5018651;28;20203;-90
2021/01/21 07:18:19;;;;;;;2.73;0.80;;;9.30;99.90;;;;;;5018212;28;20686;-92
2021/01/21 07:21:05;;;;;;;2.20;0.90;;;9.40;99.90;;;;;;5001520;28;20230;-92
2021/01/21 07:23:52;;;;;;;2.37;1.10;;;9.40;99.90;;;;;;5021322;28;20605;-96
2021/01/21 07:26:30;;;;;;;4.47;0.80;;;9.40;99.90;;;;;;5019895;28;20168;-92
2021/01/21 07:29:10;;;;;;;2.90;1.00;;;9.50;99.90;;;;;;5023686;28;20183;-91
2021/01/21 07:31:53;;;;;;;4.90;1.10;;;9.60;99.90;;;;;;5022966;28;20174;-90
2021/01/21 07:34:37;;;;;;;1.90;0.90;;;9.50;99.90;;;;;;5020713;28;20294;-93
2021/01/21 07:37:42;;;;;;;1.67;1.00;;;9.60;99.90;;;;;;5019580;28;20183;-92
2021/01/21 07:40:12;;;;;;;2.80;0.80;;;9.60;99.90;;;;;;5024113;28;20246;-96
2021/01/21 07:42:37;;;;;;;2.40;1.00;;;9.50;99.90;;;;;;5022087;28;20869;-94
2021/01/21 07:45:06;;;;;;;4.00;1.20;;;9.50;99.90;;;;;;5031395;28;20179;-93
2021/01/21 07:47:42;;;;;;;1.13;0.80;;;9.60;99.90;;;;;;5028479;28;20249;-95
2021/01/21 07:50:27;;;;;;;2.10;0.90;;;9.70;99.90;;;;;;5031771;28;20198;-93
2021/01/21 07:53:17;;;;;;;7.03;0.90;;;9.60;99.90;;;;;;5028186;28;20183;-95
2021/01/21 07:55:44;;;;;;;1.70;1.00;;;9.60;99.90;;;;;;5024485;28;20247;-94
2021/01/21 07:58:27;;;;;;;2.93;1.20;;;9.50;99.90;;;;;;5026232;28;20171;-95
2021/01/21 08:01:00;;;;;;;2.57;0.73;;;9.50;99.90;;;;;;5027822;28;20171;-94
2021/01/21 08:03:40;;;;;;;3.50;0.80;;;9.50;99.90;;;;;;5025842;28;20588;-92
2021/01/21 08:06:15;;;;;;;2.40;1.20;;;9.60;99.90;;;;;;5012031;28;20164;-91
2021/01/21 08:09:13;;;;;;;1.40;0.87;;;9.60;99.90;;;;;;5029068;28;20282;-96
2021/01/21 08:11:40;;;;;;;3.87;1.17;;;9.70;99.90;;;;;;4962571;28;20188;-94
2021/01/21 08:14:06;;;;;;;1.50;1.03;;;9.90;99.90;;;;;;4954201;28;20200;-90
2021/01/21 08:16:32;;;;;;;4.50;1.30;;;10.00;99.90;;;;;;4985225;28;20175;-92
2021/01/21 08:19:01;;;;;;;5.47;1.10;;;10.20;99.90;;;;;;4984721;28;20180;-94
2021/01/21 08:21:28;;;;;;;3.17;1.07;;;10.30;99.90;;;;;;4964246;28;20632;-93
2021/01/21 08:24:06;;;;;;;3.20;1.40;;;10.40;99.90;;;;;;4960017;28;20184;-90
2021/01/21 08:26:33;;;;;;;3.03;1.07;;;10.50;99.90;;;;;;4960351;28;20176;-91
2021/01/21 08:28:59;;;;;;;2.27;1.10;;;10.60;99.90;;;;;;4959513;28;20272;-91
2021/01/21 08:31:47;;;;;;;6.37;1.20;;;10.70;99.90;;;;;;4959935;28;20184;-92
2021/01/21 08:34:22;;;;;;;1.67;0.77;;;10.70;99.90;;;;;;4960699;28;20273;-91
2021/01/21 08:36:48;;;;;;;2.07;0.90;;;10.70;99.90;;;;;;4963277;28;20239;-93
2021/01/21 08:39:15;;;;;;;2.63;1.10;;;10.70;99.90;;;;;;4960786;28;20184;-92
2021/01/21 08:41:42;;;;;;;1.37;0.80;;;10.60;99.90;;;;;;4959477;28;20191;-91
2021/01/21 08:44:16;;;;;;;1.40;0.70;;;10.60;99.90;;;;;;4959422;28;20176;-93
2021/01/21 08:46:42;;;;;;;2.23;0.90;;;10.50;99.90;;;;;;4960473;28;20176;-92
2021/01/21 08:49:09;;;;;;;4.03;0.70;;;10.80;99.90;;;;;;4961830;28;20184;-94
2021/01/21 08:51:37;;;;;;;1.13;0.70;;;10.80;99.90;;;;;;4959567;28;20207;-92
2021/01/21 08:54:17;;;;;;;0.50;0.40;;;10.60;99.90;;;;;;4960962;28;20187;-92
2021/01/21 08:56:43;;;;;;;1.37;0.80;;;10.20;99.90;;;;;;4958803;28;20267;-92
2021/01/21 08:59:26;;;;;;;1.20;0.40;;;9.80;99.90;;;;;;4966946;28;20185;-91
2021/01/21 09:01:52;;;;;;;1.43;0.40;;;9.40;99.90;;;;;;4975491;28;20188;-92
2021/01/21 09:04:29;;;;;;;0.80;0.50;;;9.10;99.90;;;;;;4978136;28;20183;-92
2021/01/21 09:06:56;;;;;;;0.40;0.30;;;8.80;99.90;;;;;;4961780;28;20176;-94
2021/01/21 09:09:29;;;;;;;0.40;0.30;;;8.70;99.90;;;;;;4964823;28;20274;-91
2021/01/21 09:11:56;;;;;;;1.90;0.30;;;8.50;99.90;;;;;;4995878;28;20179;-93
2021/01/21 09:14:26;;;;;;;0.27;0.27;;;8.50;99.90;;;;;;4995903;28;20211;-92
2021/01/21 09:16:55;;;;;;;0.50;0.40;;;8.40;99.90;;;;;;5004071;28;20187;-94
2021/01/21 09:19:26;;;;;;;1.60;0.40;;;8.40;99.90;;;;;;5016821;28;20183;-93
2021/01/21 09:22:15;;;;;;;1.10;0.40;;;8.30;99.90;;;;;;5015304;28;20179;-96
2021/01/21 09:25:01;;;;;;;2.53;0.20;;;8.20;99.90;;;;;;5011482;28;20177;-96
2021/01/21 09:27:29;;;;;;;0.30;0.30;;;8.20;99.90;;;;;;5008844;28;20179;-93
2021/01/21 09:30:05;;;;;;;0.90;0.30;;;8.10;99.90;;;;;;5014980;28;20179;-93
2021/01/21 09:32:42;;;;;;;1.53;0.40;;;8.00;99.90;;;;;;5002264;28;20186;-92
2021/01/21 09:35:11;;;;;;;1.70;0.40;;;8.00;99.90;;;;;;5011349;28;20649;-93
2021/01/21 09:37:49;;;;;;;1.60;0.40;;;8.00;99.90;;;;;;4998826;28;20274;-93
2021/01/21 09:40:17;;;;;;;0.67;0.50;;;7.90;99.90;;;;;;5006264;28;20191;-92
2021/01/21 09:42:43;;;;;;;2.40;0.40;;;7.80;99.90;;;;;;5009959;28;20534;-93
2021/01/21 09:45:10;;;;;;;0.40;0.30;;;7.80;99.90;;;;;;4994675;28;20180;-91
2021/01/21 09:47:36;;;;;;;0.30;0.20;;;7.70;99.90;;;;;;4994808;28;20180;-94
2021/01/21 09:50:07;;;;;;;0.30;0.30;;;7.70;99.90;;;;;;4994098;28;20637;-93
2021/01/21 09:52:34;;;;;;;0.40;0.30;;;7.70;99.90;;;;;;4995213;28;20222;-93
2021/01/21 09:55:00;;;;;;;0.67;0.20;;;7.70;99.90;;;;;;4997163;28;20262;-95
2021/01/21 09:57:27;;;;;;;0.40;0.20;;;7.70;99.90;;;;;;5014815;28;20168;-93
2021/01/21 09:59:53;;;;;;;0.60;0.30;;;7.60;99.90;;;;;;5016677;28;20207;-93
2021/01/21 10:02:18;;;;;;;0.20;0.20;;;7.60;99.90;;;;;;5017396;28;20191;-93
2021/01/21 10:04:46;;;;;;;0.33;0.27;;;7.70;99.90;;;;;;5017803;28;20186;-92
2021/01/21 10:07:12;;;;;;;0.60;0.20;;;7.60;99.90;;;;;;5016392;28;20179;-96
2021/01/21 10:09:39;;;;;;;1.03;0.20;;;7.60;99.90;;;;;;5019664;28;20788;-94
2021/01/21 10:12:06;;;;;;;0.20;0.20;;;7.70;99.90;;;;;;5024370;28;20183;-94
2021/01/21 10:14:33;;;;;;;0.47;0.20;;;7.60;99.90;;;;;;5018061;28;20290;-93
2021/01/21 10:17:02;;;;;;;0.57;0.50;;;7.60;99.90;;;;;;5017153;28;20194;-93
2021/01/21 10:19:28;;;;;;;1.33;0.30;;;7.60;99.90;;;;;;5016918;28;20175;-93
2021/01/21 10:21:54;;;;;;;0.77;0.60;;;7.60;99.90;;;;;;5016672;28;20202;-93
2021/01/21 10:24:21;;;;;;;2.87;0.50;;;7.60;99.90;;;;;;5027125;28;20634;-94
2021/01/21 10:26:47;;;;;;;5.10;0.43;;;7.60;99.90;;;;;;5031843;28;20195;-90
2021/01/21 10:29:13;;;;;;;0.50;0.30;;;7.60;99.90;;;;;;5023435;28;20241;-90
2021/01/21 10:31:40;;;;;;;0.23;0.20;;;7.60;99.90;;;;;;5020366;28;20171;-93
2021/01/21 10:34:08;;;;;;;0.30;0.20;;;7.60;99.90;;;;;;5025812;28;20186;-93
2021/01/21 10:36:36;;;;;;;1.07;0.30;;;7.60;99.90;;;;;;5024161;28;20190;-93
2021/01/21 10:39:03;;;;;;;0.50;0.30;;;7.60;99.90;;;;;;5030198;28;20194;-93
2021/01/21 10:41:29;;;;;;;0.97;0.40;;;7.60;99.90;;;;;;4999310;28;20203;-93
2021/01/21 10:43:55;;;;;;;1.33;0.40;;;7.60;99.90;;;;;;5000999;28;20186;-92
2021/01/21 10:46:20;;;;;;;0.97;0.37;;;7.60;99.90;;;;;;4998564;28;20188;-90
2021/01/21 10:48:46;;;;;;;0.47;0.30;;;7.60;99.90;;;;;;4997088;28;20315;-94
2021/01/21 10:51:12;;;;;;;2.13;0.30;;;7.60;99.90;;;;;;4996928;28;20246;-94
2021/01/21 10:53:38;;;;;;;1.07;0.30;;;7.60;99.90;;;;;;4997536;28;20263;-92
2021/01/21 10:56:05;;;;;;;0.80;0.30;;;7.60;99.90;;;;;;4996781;28;20211;-92
2021/01/21 10:58:31;;;;;;;0.60;0.37;;;7.60;99.90;;;;;;4999360;28;20611;-94
2021/01/21 11:00:57;;;;;;;0.93;0.20;;;7.60;99.90;;;;;;4999262;28;20278;-92
2021/01/21 11:03:25;;;;;;;2.80;0.30;;;7.50;99.90;;;;;;5007542;28;20242;-94
2021/01/21 11:05:51;;;;;;;1.70;0.30;;;7.50;99.90;;;;;;4999381;28;20184;-90
2021/01/21 11:08:17;;;;;;;0.83;0.20;;;7.50;99.90;;;;;;5016318;28;20183;-93
2021/01/21 11:10:43;;;;;;;0.20;0.17;;;7.50;99.90;;;;;;5017194;28;20254;-93
2021/01/21 11:13:16;;;;;;;1.57;0.60;;;7.50;99.90;;;;;;5016303;28;20230;-93
2021/01/21 11:15:42;;;;;;;1.67;0.40;;;7.50;99.90;;;;;;5016703;28;20257;-93
2021/01/21 11:18:08;;;;;;;0.80;0.30;;;7.50;99.90;;;;;;5017328;28;20176;-95
2021/01/21 11:20:34;;;;;;;0.63;0.23;;;7.60;99.90;;;;;;5016909;28;20210;-94
2021/01/21 11:23:01;;;;;;;0.37;0.37;;;7.60;99.90;;;;;;5016954;28;20176;-94
2021/01/21 11:25:27;;;;;;;1.23;0.43;;;7.50;99.90;;;;;;5017377;28;20237;-93
2021/01/21 11:27:53;;;;;;;0.40;0.30;;;7.60;99.90;;;;;;5016149;28;20175;-95
2021/01/21 11:30:20;;;;;;;0.80;0.30;;;7.50;99.90;;;;;;5015206;28;20183;-94
2021/01/21 11:32:45;;;;;;;1.33;0.47;;;7.50;99.90;;;;;;5013695;28;20558;-93
2021/01/21 11:35:11;;;;;;;0.97;0.50;;;7.50;99.90;;;;;;4995730;28;20298;-94
2021/01/21 11:37:37;;;;;;;1.80;0.40;;;7.50;99.90;;;;;;4995895;28;20211;-92
2021/01/21 11:40:04;;;;;;;0.77;0.40;;;7.50;99.90;;;;;;4996284;28;20188;-93
2021/01/21 11:42:30;;;;;;;1.07;0.40;;;7.50;99.90;;;;;;4995529;28;20622;-94
2021/01/21 11:44:57;;;;;;;0.60;0.40;;;7.60;99.90;;;;;;4995643;28;20191;-92
2021/01/21 11:47:23;;;;;;;1.23;0.60;;;7.60;99.90;;;;;;4999516;28;20179;-91
2021/01/21 11:49:49;;;;;;;2.50;0.50;;;7.70;99.90;;;;;;5012146;28;20501;-94
2021/01/21 11:52:18;;;;;;;1.37;0.40;;;7.70;99.90;;;;;;5008486;28;20214;-94
2021/01/21 11:54:43;;;;;;;1.23;0.60;;;7.70;99.90;;;;;;5015949;28;20234;-94
2021/01/21 11:57:09;;;;;;;2.00;0.70;;;7.70;99.90;;;;;;4998258;28;20230;-93
2021/01/21 11:59:35;;;;;;;1.00;0.50;;;7.70;99.90;;;;;;4996339;28;20206;-93
2021/01/21 12:02:02;;;;;;;2.93;1.53;;;7.60;99.90;;;;;;4996833;28;20171;-93
2021/01/21 12:04:27;;;;;;;1.57;0.40;;;7.60;99.90;;;;;;4997042;28;20267;-92
2021/01/21 12:06:53;;;;;;;0.80;0.50;;;7.60;99.90;;;;;;4996872;28;20246;-93
2021/01/21 12:09:19;;;;;;;0.60;0.23;;;7.50;99.90;;;;;;4999364;28;20622;-94
2021/01/21 12:11:46;;;;;;;0.30;0.30;;;7.50;99.90;;;;;;5016612;28;20179;-92
2021/01/21 12:14:11;;;;;;;0.73;0.33;;;7.60;99.90;;;;;;5014775;28;20183;-89
2021/01/21 12:16:37;;;;;;;0.90;0.53;;;7.50;99.90;;;;;;5014493;28;20179;-94
2021/01/21 12:19:03;;;;;;;2.17;0.47;;;7.60;99.90;;;;;;5014604;28;20654;-94
2021/01/21 12:21:33;;;;;;;1.33;0.40;;;7.70;99.90;;;;;;5015662;28;20175;-93
2021/01/21 12:23:59;;;;;;;5.17;0.63;;;7.80;99.90;;;;;;5015503;28;20198;-94
2021/01/21 12:26:29;;;;;;;2.80;0.40;;;7.70;99.90;;;;;;5012397;28;20610;-94
2021/01/21 12:28:55;;;;;;;2.87;0.73;;;7.70;99.90;;;;;;5018367;28;20186;-96
2021/01/21 12:31:21;;;;;;;1.63;0.53;;;7.70;99.90;;;;;;5018504;28;20179;-94
2021/01/21 12:33:47;;;;;;;1.20;0.50;;;7.80;99.90;;;;;;5018162;28;20187;-92
2021/01/21 12:36:13;;;;;;;1.43;0.40;;;7.90;99.90;;;;;;5018230;28;20321;-95
2021/01/21 12:38:40;;;;;;;0.40;0.30;;;8.10;99.90;;;;;;5017669;28;20254;-95
2021/01/21 12:41:09;;;;;;;2.03;0.50;;;8.10;99.90;;;;;;5016847;28;20210;-96
2021/01/21 12:43:40;;;;;;;1.17;0.40;;;8.10;99.90;;;;;;5017352;28;20210;-96
2021/01/21 12:46:11;;;;;;;4.20;0.50;;;8.20;99.90;;;;;;5018435;28;20202;-96
2021/01/21 12:48:40;;;;;;;0.67;0.30;;;8.20;99.90;;;;;;5018929;28;20179;-96
2021/01/21 12:51:06;;;;;;;1.67;0.60;;;8.20;99.90;;;;;;5019409;28;20219;-95
2021/01/21 12:53:31;;;;;;;2.10;0.50;;;8.10;99.90;;;;;;5021055;28;20175;-95
2021/01/21 12:56:03;;;;;;;1.13;0.47;;;8.10;99.90;;;;;;5024490;28;20215;-95
2021/01/21 12:58:32;;;;;;;1.17;0.50;;;8.00;99.90;;;;;;5022999;28;20191;-96
2021/01/21 13:00:58;;;;;;;0.57;0.43;;;8.00;99.90;;;;;;5020372;28;20183;-96
2021/01/21 13:03:28;;;;;;;2.33;0.40;;;8.10;99.90;;;;;;5019316;28;20266;-96
2021/01/21 13:05:54;;;;;;;1.07;0.40;;;8.00;99.90;;;;;;5018929;28;20269;-96
2021/01/21 13:08:27;;;;;;;0.83;0.40;;;8.00;99.90;;;;;;5021887;28;20237;-96